sensor_id;sensor_type;location;lat;lon;timestamp;temperature;humidity
76787;DHT22;65739;51.482;5.702;2023-12-04T00:22:38;0.80;99.90
76787;DHT22;65739;51.482;5.702;2023-12-04T00:36:31;0.90;99.90
76787;DHT22;65739;51.482;5.702;2023-12-04T01:57:36;1.00;99.90
76787;DHT22;65739;51.482;5.702;2023-12-04T02:05:08;1.00;99.90
76787;DHT22;65739;51.482;5.702;2023-12-04T02:15:10;1.00;99.90
76787;DHT22;65739;51.482;5.702;2023-12-04T02:21:40;1.00;99.90
76787;DHT22;65739;51.482;5.702;2023-12-04T02:58:21;0.90;99.90
76787;DHT22;65739;51.482;5.702;2023-12-04T03:01:09;0.90;99.90
76787;DHT22;65739;51.482;5.702;2023-12-04T03:03:47;0.80;99.90
76787;DHT22;65739;51.482;5.702;2023-12-04T03:30:22;0.70;99.90
76787;DHT22;65739;51.482;5.702;2023-12-04T03:48:09;0.70;99.90
76787;DHT22;65739;51.482;5.702;2023-12-04T03:50:55;0.70;99.90
76787;DHT22;65739;51.482;5.702;2023-12-04T03:54:26;0.60;99.90
76787;DHT22;65739;51.482;5.702;2023-12-04T03:57:22;0.70;99.90
76787;DHT22;65739;51.482;5.702;2023-12-04T04:04:27;0.70;99.90
76787;DHT22;65739;51.482;5.702;2023-12-04T04:07:52;0.70;99.90
76787;DHT22;65739;51.482;5.702;2023-12-04T04:10:50;0.70;99.90
76787;DHT22;65739;51.482;5.702;2023-12-04T04:13:54;0.70;99.90
76787;DHT22;65739;51.482;5.702;2023-12-04T04:20:47;0.70;99.90
76787;DHT22;65739;51.482;5.702;2023-12-04T04:23:35;0.70;99.90
76787;DHT22;65739;51.482;5.702;2023-12-04T04:26:05;0.70;99.90
76787;DHT22;65739;51.482;5.702;2023-12-04T04:36:26;0.70;99.90
76787;DHT22;65739;51.482;5.702;2023-12-04T04:39:11;0.60;99.90
76787;DHT22;65739;51.482;5.702;2023-12-04T04:45:41;0.70;99.90
76787;DHT22;65739;51.482;5.702;2023-12-04T05:31:15;0.80;99.90
76787;DHT22;65739;51.482;5.702;2023-12-04T05:33:45;0.80;99.90
76787;DHT22;65739;51.482;5.702;2023-12-04T05:36:52;0.80;99.90
76787;DHT22;65739;51.482;5.702;2023-12-04T05:43:39;0.80;99.90
76787;DHT22;65739;51.482;5.702;2023-12-04T05:49:47;0.80;99.90
76787;DHT22;65739;51.482;5.702;2023-12-04T05:52:35;0.90;99.90
76787;DHT22;65739;51.482;5.702;2023-12-04T05:55:33;0.90;99.90
76787;DHT22;65739;51.482;5.702;2023-12-04T05:58:45;0.90;99.90
76787;DHT22;65739;51.482;5.702;2023-12-04T06:01:34;1.00;99.90
76787;DHT22;65739;51.482;5.702;2023-12-04T06:04:08;1.00;99.90
76787;DHT22;65739;51.482;5.702;2023-12-04T06:07:13;1.10;99.90
76787;DHT22;65739;51.482;5.702;2023-12-04T06:10:03;1.00;99.90
76787;DHT22;65739;51.482;5.702;2023-12-04T06:13:23;1.00;99.90
76787;DHT22;65739;51.482;5.702;2023-12-04T06:19:00;1.00;99.90
76787;DHT22;65739;51.482;5.702;2023-12-04T06:24:45;0.90;99.90
76787;DHT22;65739;51.482;5.702;2023-12-04T06:27:53;0.90;99.90
76787;DHT22;65739;51.482;5.702;2023-12-04T06:37:50;0.80;99.90
76787;DHT22;65739;51.482;5.702;2023-12-04T06:40:08;0.90;99.90
76787;DHT22;65739;51.482;5.702;2023-12-04T06:42:57;0.90;99.90
76787;DHT22;65739;51.482;5.702;2023-12-04T06:45:54;0.90;99.90
76787;DHT22;65739;51.482;5.702;2023-12-04T06:48:37;0.90;99.90
76787;DHT22;65739;51.482;5.702;2023-12-04T06:54:59;1.10;99.90
76787;DHT22;65739;51.482;5.702;2023-12-04T07:01:15;1.10;99.90
76787;DHT22;65739;51.482;5.702;2023-12-04T07:04:09;0.90;99.90
76787;DHT22;65739;51.482;5.702;2023-12-04T07:06:58;0.80;99.90
76787;DHT22;65739;51.482;5.702;2023-12-04T07:16:17;0.70;99.90
76787;DHT22;65739;51.482;5.702;2023-12-04T07:22:32;0.70;99.90
76787;DHT22;65739;51.482;5.702;2023-12-04T07:24:58;0.70;99.90
76787;DHT22;65739;51.482;5.702;2023-12-04T07:31:18;0.70;99.90
76787;DHT22;65739;51.482;5.702;2023-12-04T07:33:44;0.70;99.90
76787;DHT22;65739;51.482;5.702;2023-12-04T07:36:32;0.70;99.90
76787;DHT22;65739;51.482;5.702;2023-12-04T07:42:23;0.70;99.90
76787;DHT22;65739;51.482;5.702;2023-12-04T07:59:30;0.80;99.90
76787;DHT22;65739;51.482;5.702;2023-12-04T08:02:16;0.80;99.90
76787;DHT22;65739;51.482;5.702;2023-12-04T08:04:42;0.80;99.90
76787;DHT22;65739;51.482;5.702;2023-12-04T08:07:47;0.80;99.90
76787;DHT22;65739;51.482;5.702;2023-12-04T08:10:52;0.90;99.90
76787;DHT22;65739;51.482;5.702;2023-12-04T08:13:21;0.90;99.90
76787;DHT22;65739;51.482;5.702;2023-12-04T08:19:37;0.90;99.90
76787;DHT22;65739;51.482;5.702;2023-12-04T08:22:32;1.00;99.90
76787;DHT22;65739;51.482;5.702;2023-12-04T08:25:28;0.90;99.90
76787;DHT22;65739;51.482;5.702;2023-12-04T08:28:25;0.90;99.90
76787;DHT22;65739;51.482;5.702;2023-12-04T08:31:14;1.00;99.90
76787;DHT22;65739;51.482;5.702;2023-12-04T08:37:23;1.00;99.90
76787;DHT22;65739;51.482;5.702;2023-12-04T08:39:49;1.00;99.90
76787;DHT22;65739;51.482;5.702;2023-12-04T08:42:17;1.00;99.90
76787;DHT22;65739;51.482;5.702;2023-12-04T08:45:06;1.10;99.90
76787;DHT22;65739;51.482;5.702;2023-12-04T08:51:32;1.10;99.90
76787;DHT22;65739;51.482;5.702;2023-12-04T09:11:57;1.20;99.90
76787;DHT22;65739;51.482;5.702;2023-12-04T09:30:57;1.40;99.90
76787;DHT22;65739;51.482;5.702;2023-12-04T09:34:10;1.50;99.90
76787;DHT22;65739;51.482;5.702;2023-12-04T09:44:21;1.50;99.90
76787;DHT22;65739;51.482;5.702;2023-12-04T10:55:06;2.40;99.90
76787;DHT22;65739;51.482;5.702;2023-12-04T11:40:02;2.50;99.90
76787;DHT22;65739;51.482;5.702;2023-12-04T13:03:54;2.50;99.90
76787;DHT22;65739;51.482;5.702;2023-12-04T13:10:58;2.50;99.90
76787;DHT22;65739;51.482;5.702;2023-12-04T13:14:11;2.50;99.90
76787;DHT22;65739;51.482;5.702;2023-12-04T13:17:20;2.50;99.90
76787;DHT22;65739;51.482;5.702;2023-12-04T13:20:47;2.40;99.90
76787;DHT22;65739;51.482;5.702;2023-12-04T13:23:51;2.50;99.90
76787;DHT22;65739;51.482;5.702;2023-12-04T13:45:31;2.50;99.90
76787;DHT22;65739;51.482;5.702;2023-12-04T13:48:02;2.60;99.90
76787;DHT22;65739;51.482;5.702;2023-12-04T13:54:53;2.50;99.90
76787;DHT22;65739;51.482;5.702;2023-12-04T14:15:09;2.40;99.90
76787;DHT22;65739;51.482;5.702;2023-12-04T14:20:49;2.40;99.90
76787;DHT22;65739;51.482;5.702;2023-12-04T14:23:34;2.20;99.90
76787;DHT22;65739;51.482;5.702;2023-12-04T14:26:00;2.20;99.90
76787;DHT22;65739;51.482;5.702;2023-12-04T14:29:00;2.20;99.90
76787;DHT22;65739;51.482;5.702;2023-12-04T14:39:06;2.10;99.90
76787;DHT22;65739;51.482;5.702;2023-12-04T14:45:15;2.00;99.90
76787;DHT22;65739;51.482;5.702;2023-12-04T14:51:14;2.00;99.90
76787;DHT22;65739;51.482;5.702;2023-12-04T14:54:03;2.00;99.90
76787;DHT22;65739;51.482;5.702;2023-12-04T14:57:30;1.90;99.90
76787;DHT22;65739;51.482;5.702;2023-12-04T15:00:57;1.80;99.90
76787;DHT22;65739;51.482;5.702;2023-12-04T15:03:49;1.80;99.90
76787;DHT22;65739;51.482;5.702;2023-12-04T15:06:33;1.70;99.90
76787;DHT22;65739;51.482;5.702;2023-12-04T15:09:25;1.70;99.90
76787;DHT22;65739;51.482;5.702;2023-12-04T15:12:13;1.70;99.90
76787;DHT22;65739;51.482;5.702;2023-12-04T15:14:54;1.60;99.90
76787;DHT22;65739;51.482;5.702;2023-12-04T15:17:47;1.60;99.90
76787;DHT22;65739;51.482;5.702;2023-12-04T15:20:59;1.60;99.90
76787;DHT22;65739;51.482;5.702;2023-12-04T15:23:36;1.50;99.90
76787;DHT22;65739;51.482;5.702;2023-12-04T15:26:16;1.40;99.90
76787;DHT22;65739;51.482;5.702;2023-12-04T15:28:50;1.50;99.90
76787;DHT22;65739;51.482;5.702;2023-12-04T15:47:13;1.80;99.90
76787;DHT22;65739;51.482;5.702;2023-12-04T15:54:28;1.80;99.90
76787;DHT22;65739;51.482;5.702;2023-12-04T15:56:50;1.80;99.90
76787;DHT22;65739;51.482;5.702;2023-12-04T16:00:37;1.80;99.90
76787;DHT22;65739;51.482;5.702;2023-12-04T16:07:26;1.80;99.90
76787;DHT22;65739;51.482;5.702;2023-12-04T16:10:19;1.80;99.90
76787;DHT22;65739;51.482;5.702;2023-12-04T16:12:45;1.80;99.90
76787;DHT22;65739;51.482;5.702;2023-12-04T16:23:07;1.80;99.90
76787;DHT22;65739;51.482;5.702;2023-12-04T16:26:12;1.80;99.90
76787;DHT22;65739;51.482;5.702;2023-12-04T16:28:38;1.80;99.90
76787;DHT22;65739;51.482;5.702;2023-12-04T16:31:05;1.80;99.90
76787;DHT22;65739;51.482;5.702;2023-12-04T16:33:31;1.70;99.90
76787;DHT22;65739;51.482;5.702;2023-12-04T16:35:57;1.80;99.90
76787;DHT22;65739;51.482;5.702;2023-12-04T16:38:25;1.80;99.90
76787;DHT22;65739;51.482;5.702;2023-12-04T16:40:54;1.70;99.90
76787;DHT22;65739;51.482;5.702;2023-12-04T16:43:20;1.80;99.90
76787;DHT22;65739;51.482;5.702;2023-12-04T16:45:46;1.80;99.90
76787;DHT22;65739;51.482;5.702;2023-12-04T16:48:12;1.80;99.90
76787;DHT22;65739;51.482;5.702;2023-12-04T16:50:38;1.80;99.90
76787;DHT22;65739;51.482;5.702;2023-12-04T16:53:16;1.80;99.90
76787;DHT22;65739;51.482;5.702;2023-12-04T16:55:45;1.80;99.90
76787;DHT22;65739;51.482;5.702;2023-12-04T16:58:22;1.80;99.90
76787;DHT22;65739;51.482;5.702;2023-12-04T17:00:48;1.90;99.90
76787;DHT22;65739;51.482;5.702;2023-12-04T17:03:13;1.80;99.90
76787;DHT22;65739;51.482;5.702;2023-12-04T17:05:39;1.80;99.90
76787;DHT22;65739;51.482;5.702;2023-12-04T17:08:05;1.80;99.90
76787;DHT22;65739;51.482;5.702;2023-12-04T17:10:31;1.80;99.90
76787;DHT22;65739;51.482;5.702;2023-12-04T17:12:57;1.80;99.90
76787;DHT22;65739;51.482;5.702;2023-12-04T17:15:26;1.90;99.90
76787;DHT22;65739;51.482;5.702;2023-12-04T17:18:08;1.90;99.90
76787;DHT22;65739;51.482;5.702;2023-12-04T17:20:43;1.80;99.90
76787;DHT22;65739;51.482;5.702;2023-12-04T17:23:08;1.90;99.90
76787;DHT22;65739;51.482;5.702;2023-12-04T17:25:37;1.80;99.90
76787;DHT22;65739;51.482;5.702;2023-12-04T17:28:06;1.80;99.90
76787;DHT22;65739;51.482;5.702;2023-12-04T17:30:44;1.80;99.90
76787;DHT22;65739;51.482;5.702;2023-12-04T17:33:30;1.80;99.90
76787;DHT22;65739;51.482;5.702;2023-12-04T17:35:59;1.80;99.90
76787;DHT22;65739;51.482;5.702;2023-12-04T17:38:45;1.80;99.90
76787;DHT22;65739;51.482;5.702;2023-12-04T17:41:30;1.80;99.90
76787;DHT22;65739;51.482;5.702;2023-12-04T17:44:09;1.80;99.90
76787;DHT22;65739;51.482;5.702;2023-12-04T17:46:35;1.90;99.90
76787;DHT22;65739;51.482;5.702;2023-12-04T17:49:09;1.80;99.90
76787;DHT22;65739;51.482;5.702;2023-12-04T17:51:39;1.90;99.90
76787;DHT22;65739;51.482;5.702;2023-12-04T17:54:23;1.90;99.90
76787;DHT22;65739;51.482;5.702;2023-12-04T17:56:52;1.80;99.90
76787;DHT22;65739;51.482;5.702;2023-12-04T17:59:28;1.80;99.90
76787;DHT22;65739;51.482;5.702;2023-12-04T18:01:56;1.80;99.90
76787;DHT22;65739;51.482;5.702;2023-12-04T18:04:28;1.90;99.90
76787;DHT22;65739;51.482;5.702;2023-12-04T18:06:54;1.90;99.90
76787;DHT22;65739;51.482;5.702;2023-12-04T18:09:26;1.90;99.90
76787;DHT22;65739;51.482;5.702;2023-12-04T18:12:01;1.90;99.90
76787;DHT22;65739;51.482;5.702;2023-12-04T18:17:19;1.90;99.90
76787;DHT22;65739;51.482;5.702;2023-12-04T18:19:54;1.90;99.90
76787;DHT22;65739;51.482;5.702;2023-12-04T18:22:23;1.90;99.90
76787;DHT22;65739;51.482;5.702;2023-12-04T18:24:52;2.00;99.90
76787;DHT22;65739;51.482;5.702;2023-12-04T18:30:43;2.00;99.90
76787;DHT22;65739;51.482;5.702;2023-12-04T18:33:38;2.00;99.90
76787;DHT22;65739;51.482;5.702;2023-12-04T18:36:46;2.00;99.90
76787;DHT22;65739;51.482;5.702;2023-12-04T18:39:15;2.00;99.90
76787;DHT22;65739;51.482;5.702;2023-12-04T18:41:50;2.00;99.90
76787;DHT22;65739;51.482;5.702;2023-12-04T18:44:40;2.00;99.90
76787;DHT22;65739;51.482;5.702;2023-12-04T18:47:08;2.00;99.90
76787;DHT22;65739;51.482;5.702;2023-12-04T18:50:02;2.00;99.90
76787;DHT22;65739;51.482;5.702;2023-12-04T18:52:45;2.00;99.90
76787;DHT22;65739;51.482;5.702;2023-12-04T18:55:19;2.00;99.90
76787;DHT22;65739;51.482;5.702;2023-12-04T18:58:10;2.10;99.90
76787;DHT22;65739;51.482;5.702;2023-12-04T19:00:48;2.20;99.90
76787;DHT22;65739;51.482;5.702;2023-12-04T19:03:52;2.20;99.90
76787;DHT22;65739;51.482;5.702;2023-12-04T19:06:31;2.10;99.90
76787;DHT22;65739;51.482;5.702;2023-12-04T19:09:09;2.20;99.90
76787;DHT22;65739;51.482;5.702;2023-12-04T19:15:12;2.10;99.90
76787;DHT22;65739;51.482;5.702;2023-12-04T19:17:49;2.10;99.90
76787;DHT22;65739;51.482;5.702;2023-12-04T19:20:27;2.10;99.90
76787;DHT22;65739;51.482;5.702;2023-12-04T19:22:57;2.20;99.90
76787;DHT22;65739;51.482;5.702;2023-12-04T19:25:37;2.20;99.90
76787;DHT22;65739;51.482;5.702;2023-12-04T19:31:58;2.20;99.90
76787;DHT22;65739;51.482;5.702;2023-12-04T19:34:34;2.20;99.90
76787;DHT22;65739;51.482;5.702;2023-12-04T19:37:27;2.20;99.90
76787;DHT22;65739;51.482;5.702;2023-12-04T19:40:01;2.20;99.90
76787;DHT22;65739;51.482;5.702;2023-12-04T19:45:57;2.20;99.90
76787;DHT22;65739;51.482;5.702;2023-12-04T19:49:09;2.30;99.90
76787;DHT22;65739;51.482;5.702;2023-12-04T19:52:22;2.20;99.90
76787;DHT22;65739;51.482;5.702;2023-12-04T19:58:08;2.20;99.90
76787;DHT22;65739;51.482;5.702;2023-12-04T20:00:41;2.30;99.90
76787;DHT22;65739;51.482;5.702;2023-12-04T20:06:41;2.30;99.90
76787;DHT22;65739;51.482;5.702;2023-12-04T20:09:25;2.20;99.90
76787;DHT22;65739;51.482;5.702;2023-12-04T20:12:10;2.30;99.90
76787;DHT22;65739;51.482;5.702;2023-12-04T20:15:09;2.30;99.90
76787;DHT22;65739;51.482;5.702;2023-12-04T20:18:04;2.30;99.90
76787;DHT22;65739;51.482;5.702;2023-12-04T20:20:59;2.20;99.90
76787;DHT22;65739;51.482;5.702;2023-12-04T20:23:36;2.30;99.90
76787;DHT22;65739;51.482;5.702;2023-12-04T20:26:11;2.20;99.90
76787;DHT22;65739;51.482;5.702;2023-12-04T20:28:40;2.30;99.90
76787;DHT22;65739;51.482;5.702;2023-12-04T20:31:23;2.30;99.90
76787;DHT22;65739;51.482;5.702;2023-12-04T20:33:49;2.30;99.90
76787;DHT22;65739;51.482;5.702;2023-12-04T20:36:27;2.30;99.90
76787;DHT22;65739;51.482;5.702;2023-12-04T20:38:53;2.30;99.90
76787;DHT22;65739;51.482;5.702;2023-12-04T20:41:37;2.30;99.90
76787;DHT22;65739;51.482;5.702;2023-12-04T20:44:03;2.30;99.90
76787;DHT22;65739;51.482;5.702;2023-12-04T20:46:37;2.30;99.90
76787;DHT22;65739;51.482;5.702;2023-12-04T20:49:06;2.40;99.90
76787;DHT22;65739;51.482;5.702;2023-12-04T20:52:38;2.30;99.90
76787;DHT22;65739;51.482;5.702;2023-12-04T20:58:16;2.30;99.90
76787;DHT22;65739;51.482;5.702;2023-12-04T21:07:18;2.30;99.90
76787;DHT22;65739;51.482;5.702;2023-12-04T21:09:44;2.30;99.90
76787;DHT22;65739;51.482;5.702;2023-12-04T21:12:25;2.40;99.90
76787;DHT22;65739;51.482;5.702;2023-12-04T21:15:27;2.40;99.90
76787;DHT22;65739;51.482;5.702;2023-12-04T21:25:15;2.50;99.90
76787;DHT22;65739;51.482;5.702;2023-12-04T21:27:41;2.50;99.90
76787;DHT22;65739;51.482;5.702;2023-12-04T21:30:23;2.50;99.90
76787;DHT22;65739;51.482;5.702;2023-12-04T21:33:36;2.60;99.90
76787;DHT22;65739;51.482;5.702;2023-12-04T21:36:11;2.60;99.90
76787;DHT22;65739;51.482;5.702;2023-12-04T21:38:37;2.50;99.90
76787;DHT22;65739;51.482;5.702;2023-12-04T21:41:04;2.60;99.90
76787;DHT22;65739;51.482;5.702;2023-12-04T21:43:52;2.50;99.90
76787;DHT22;65739;51.482;5.702;2023-12-04T21:53:25;2.60;99.90
76787;DHT22;65739;51.482;5.702;2023-12-04T21:56:15;2.60;99.90
76787;DHT22;65739;51.482;5.702;2023-12-04T22:02:46;2.60;99.90
76787;DHT22;65739;51.482;5.702;2023-12-04T22:05:20;2.60;99.90
76787;DHT22;65739;51.482;5.702;2023-12-04T22:07:55;2.70;99.90
76787;DHT22;65739;51.482;5.702;2023-12-04T22:14:09;2.70;99.90
76787;DHT22;65739;51.482;5.702;2023-12-04T22:16:59;2.70;99.90
76787;DHT22;65739;51.482;5.702;2023-12-04T22:19:40;2.70;99.90
76787;DHT22;65739;51.482;5.702;2023-12-04T22:22:09;2.70;99.90
76787;DHT22;65739;51.482;5.702;2023-12-04T22:25:07;2.80;99.90
76787;DHT22;65739;51.482;5.702;2023-12-04T22:27:33;2.80;99.90
76787;DHT22;65739;51.482;5.702;2023-12-04T22:30:08;2.80;99.90
76787;DHT22;65739;51.482;5.702;2023-12-04T22:33:15;2.80;99.90
76787;DHT22;65739;51.482;5.702;2023-12-04T22:35:44;2.80;99.90
76787;DHT22;65739;51.482;5.702;2023-12-04T22:38:13;2.80;99.90
76787;DHT22;65739;51.482;5.702;2023-12-04T22:43:41;2.90;99.90
76787;DHT22;65739;51.482;5.702;2023-12-04T22:46:10;2.90;99.90
76787;DHT22;65739;51.482;5.702;2023-12-04T22:48:46;2.90;99.90
76787;DHT22;65739;51.482;5.702;2023-12-04T22:55:31;2.90;99.90
76787;DHT22;65739;51.482;5.702;2023-12-04T22:58:17;2.90;99.90
76787;DHT22;65739;51.482;5.702;2023-12-04T23:07:41;3.00;99.90
76787;DHT22;65739;51.482;5.702;2023-12-04T23:10:13;3.00;99.90
76787;DHT22;65739;51.482;5.702;2023-12-04T23:12:45;3.00;99.90
76787;DHT22;65739;51.482;5.702;2023-12-04T23:15:16;3.00;99.90
76787;DHT22;65739;51.482;5.702;2023-12-04T23:18:04;3.10;99.90
76787;DHT22;65739;51.482;5.702;2023-12-04T23:23:35;3.10;99.90
76787;DHT22;65739;51.482;5.702;2023-12-04T23:26:07;3.00;99.90
76787;DHT22;65739;51.482;5.702;2023-12-04T23:28:39;3.00;99.90
76787;DHT22;65739;51.482;5.702;2023-12-04T23:31:07;3.10;99.90
76787;DHT22;65739;51.482;5.702;2023-12-04T23:33:48;3.10;99.90
76787;DHT22;65739;51.482;5.702;2023-12-04T23:36:25;3.10;99.90
76787;DHT22;65739;51.482;5.702;2023-12-04T23:39:16;3.10;99.90
76787;DHT22;65739;51.482;5.702;2023-12-04T23:41:48;3.10;99.90
76787;DHT22;65739;51.482;5.702;2023-12-04T23:44:30;3.10;99.90
76787;DHT22;65739;51.482;5.702;2023-12-04T23:47:08;3.10;99.90
